Etusivu
METAR-TAF:

METAR-TAF

Lentoasemat :

El Borma, Tunisia

Leveyspiiri: 31-41N, Pituuspiiri: 009-10E, korkeus merenpinnasta: 258 m

Tämänhetkinen sää

Tämä raportti tehtiin 1 tunti ja 11 minuuttia sitten, kello 16.00 UTC
Tuuli 3 kn luoteesta, vaihdellen lännen ja pohjoisen välillä
Lämpötila 25°C
Kosteus 24%
Ilmanpaine 1013 hPa
Näkyvyys 10 km tai enemmän
Muutamia pilviä 2000 ft:n korkeudessa

METAR: DTTR 231600Z 31003KT 280V360 9999 FEW020 25/03 Q1013

Aika: 18:11 (17:11 UTC)

Sääennuste

Tämä raportti tehtiin 2 tuntia ja 11 minuuttia sitten, kello 15.00 UTC
Ennuste voimassa 23. päivästä klo 16 UTC - 24. päivään klo 01 UTC
Tuuli 2 kn eri suunnista
Näkyvyys 10 km tai enemmän
Muutamia pilviä 2600 ft:n korkeudessa
Tulossa
23. päivästä klo 19 UTC - 23. päivään klo 21 UTC
Tuuli 10 kn etelästä/kaakosta

TAF: DTTR 231500Z 2316/2401 VRB02KT 9999 FEW026 BECMG 2319/2321 16010KT

Säähavainnot ja -ennusteet yli 4000 lentoasemalta (METAR- ja TAF-raportit).

Käytössä olevat sääasemat on merkitty karttaan keltaisilla ja punaisilla pisteillä.

Aseta hiiri pisteen päälle nähdäksesi sääaseman nimen.

Klikkaa sitten nähdäksesi säähavainnot ja -ennusteet.

Kartan vaihtaminen: klikkaa mustalla rastilla varustettuja vihreitä pisteitä, niin voit zoomata sisään; viivalla varustettua vihreää pistettä, niin voit zoomata ulos tai vihreitä nuolia, niin pääset viereisille kartoille.


METAR-TAF: